createdAt,value
2019-04-30T00:01:36.254Z,39.00
2019-04-30T00:04:50.529Z,35.13
2019-04-30T00:08:05.844Z,31.53
2019-04-30T00:11:19.683Z,42.77
2019-04-30T00:14:38.626Z,40.20
2019-04-30T00:17:52.994Z,41.50
2019-04-30T00:21:05.566Z,41.43
2019-04-30T00:24:19.815Z,47.77
2019-04-30T00:27:33.539Z,48.20
2019-04-30T00:30:47.873Z,43.10
2019-04-30T00:34:01.775Z,41.80
2019-04-30T00:37:18.771Z,44.37
2019-04-30T00:40:30.959Z,51.27
2019-04-30T00:43:49.377Z,47.33
2019-04-30T00:47:04.210Z,45.00
2019-04-30T00:50:15.922Z,51.13
2019-04-30T00:53:29.565Z,45.93
2019-04-30T00:56:43.311Z,52.77
2019-04-30T00:59:57.029Z,45.63
2019-04-30T01:03:16.378Z,46.90
2019-04-30T01:06:30.350Z,46.73
2019-04-30T01:09:49.277Z,44.10
2019-04-30T01:13:07.359Z,43.47
2019-04-30T01:16:15.357Z,38.10
2019-04-30T01:19:32.315Z,43.00
2019-04-30T01:22:44.722Z,49.50
2019-04-30T01:25:59.158Z,50.03
2019-04-30T01:29:12.775Z,42.30
2019-04-30T01:32:28.161Z,49.97
2019-04-30T01:35:41.965Z,48.00
2019-04-30T01:38:55.497Z,49.17
2019-04-30T01:42:11.347Z,51.07
2019-04-30T01:45:30.120Z,49.50
2019-04-30T01:48:43.675Z,43.13
2019-04-30T01:51:57.374Z,49.40
2019-04-30T01:55:11.183Z,53.43
2019-04-30T01:58:33.803Z,50.10
2019-04-30T02:01:48.730Z,45.13
2019-04-30T02:05:03.074Z,43.37
2019-04-30T02:08:16.779Z,49.73
2019-04-30T02:11:30.930Z,49.90
2019-04-30T02:14:44.675Z,47.67
2019-04-30T02:17:58.827Z,47.03
2019-04-30T02:21:12.797Z,56.80
2019-04-30T02:24:26.297Z,49.93
2019-04-30T02:27:40.225Z,49.63
2019-04-30T02:30:54.063Z,52.90
2019-04-30T02:34:15.970Z,50.90
2019-04-30T02:37:31.425Z,48.93
2019-04-30T02:40:45.436Z,49.87
2019-04-30T02:44:00.618Z,49.13
2019-04-30T02:47:16.545Z,51.70
2019-04-30T02:50:32.637Z,43.77
2019-04-30T02:54:23.667Z,47.23
2019-04-30T02:57:35.779Z,43.53
2019-04-30T03:00:49.687Z,40.77
2019-04-30T03:04:03.418Z,43.67
2019-04-30T03:07:19.395Z,45.93
2019-04-30T03:10:32.629Z,44.23
2019-04-30T03:13:49.262Z,43.67
2019-04-30T03:17:11.367Z,42.57
2019-04-30T03:20:36.279Z,46.33
2019-04-30T03:23:50.333Z,40.93
2019-04-30T03:27:04.159Z,47.83
2019-04-30T03:30:21.995Z,53.17
2019-04-30T03:33:33.613Z,49.63
2019-04-30T03:36:50.202Z,48.60
2019-04-30T03:40:04.373Z,49.00
2019-04-30T03:43:20.109Z,50.60
2019-04-30T03:46:33.584Z,48.93
2019-04-30T03:49:49.916Z,42.60
2019-04-30T03:53:02.884Z,47.63
2019-04-30T03:56:22.400Z,45.10
2019-04-30T03:59:32.284Z,47.17
2019-04-30T04:02:46.656Z,45.17
2019-04-30T04:06:21.266Z,46.87
2019-04-30T04:09:40.128Z,46.57
2019-04-30T04:12:54.020Z,50.37
2019-04-30T04:16:09.667Z,49.70
2019-04-30T04:19:23.524Z,46.20
2019-04-30T04:22:40.092Z,45.43
2019-04-30T04:25:52.691Z,46.53
2019-04-30T04:29:06.188Z,45.60
2019-04-30T04:32:23.955Z,42.07
2019-04-30T04:35:35.924Z,48.13
2019-04-30T04:38:50.750Z,41.07
2019-04-30T04:42:04.642Z,44.63
2019-04-30T04:45:19.881Z,42.77
2019-04-30T04:48:33.723Z,42.70
2019-04-30T04:51:49.266Z,46.47
2019-04-30T04:55:03.267Z,40.93
2019-04-30T04:58:21.170Z,40.20
2019-04-30T05:01:32.379Z,42.97
2019-04-30T05:04:45.975Z,40.33
2019-04-30T05:07:59.850Z,42.90
2019-04-30T05:11:13.350Z,38.80
2019-04-30T05:16:33.698Z,39.90
2019-04-30T05:19:48.750Z,39.70
2019-04-30T05:23:02.929Z,43.60
2019-04-30T05:26:16.509Z,41.87
2019-04-30T05:29:30.051Z,39.27
2019-04-30T05:32:43.530Z,41.43
2019-04-30T05:35:57.156Z,38.03
2019-04-30T05:39:10.766Z,36.87
2019-04-30T05:42:24.274Z,35.63
2019-04-30T05:45:39.014Z,38.70
2019-04-30T05:48:52.763Z,36.27
2019-04-30T05:52:06.293Z,34.10
2019-04-30T05:55:20.317Z,35.77
2019-04-30T05:58:34.055Z,35.47
2019-04-30T06:01:50.589Z,32.27
2019-04-30T06:05:04.076Z,27.47
2019-04-30T06:08:19.725Z,25.37
2019-04-30T06:11:51.852Z,27.73
2019-04-30T06:15:12.069Z,27.40
2019-04-30T06:18:25.884Z,26.13
2019-04-30T06:21:39.693Z,25.67
2019-04-30T06:24:53.416Z,25.83
2019-04-30T06:28:07.262Z,25.70
2019-04-30T06:31:31.915Z,25.20
2019-04-30T06:34:41.610Z,24.47
2019-04-30T06:37:53.723Z,23.97
2019-04-30T06:41:08.692Z,22.70
2019-04-30T06:44:34.750Z,20.40
2019-04-30T06:47:38.952Z,21.20
2019-04-30T06:50:52.609Z,22.20
2019-04-30T06:54:06.586Z,20.80
2019-04-30T06:57:22.377Z,21.80
2019-04-30T07:00:39.609Z,21.00
2019-04-30T07:03:52.628Z,20.83
2019-04-30T07:07:06.242Z,21.03
2019-04-30T07:10:26.066Z,21.87
2019-04-30T07:13:42.722Z,20.77
2019-04-30T07:16:56.627Z,21.67
2019-04-30T07:20:10.643Z,22.07
2019-04-30T07:23:24.245Z,20.80
2019-04-30T07:26:38.902Z,21.80
2019-04-30T07:29:52.559Z,21.23
2019-04-30T07:33:06.405Z,20.93
2019-04-30T07:36:20.142Z,22.97
2019-04-30T07:39:33.626Z,20.20
2019-04-30T07:42:49.170Z,22.73
2019-04-30T07:46:02.792Z,20.03
2019-04-30T07:49:16.278Z,20.03
2019-04-30T07:52:33.236Z,21.03
2019-04-30T07:55:49.369Z,21.20
2019-04-30T07:59:03.932Z,19.67
2019-04-30T08:02:20.529Z,21.03
2019-04-30T08:05:40.153Z,20.57
2019-04-30T08:08:57.431Z,21.43
2019-04-30T08:12:09.963Z,19.80
2019-04-30T08:15:24.368Z,19.27
2019-04-30T08:18:39.238Z,21.90
2019-04-30T08:21:52.773Z,19.07
2019-04-30T08:25:06.773Z,17.83
2019-04-30T08:28:20.644Z,19.10
2019-04-30T08:31:34.230Z,18.10
2019-04-30T08:34:49.981Z,21.57
2019-04-30T08:38:03.904Z,19.67
2019-04-30T08:41:19.246Z,20.40
2019-04-30T08:44:32.793Z,21.50
2019-04-30T08:47:46.560Z,20.23
2019-04-30T08:51:00.091Z,19.97
2019-04-30T08:54:13.798Z,18.07
2019-04-30T08:57:29.411Z,19.33
2019-04-30T09:00:43.315Z,16.67
2019-04-30T09:03:59.444Z,20.57
2019-04-30T09:07:13.892Z,16.23
2019-04-30T09:10:29.443Z,18.93
2019-04-30T09:13:43.108Z,15.17
2019-04-30T09:16:56.823Z,18.33
2019-04-30T09:20:11.020Z,18.83
2019-04-30T09:23:24.514Z,17.67
2019-04-30T09:26:39.144Z,18.70
2019-04-30T09:29:52.859Z,14.70
2019-04-30T09:33:06.480Z,14.13
2019-04-30T09:36:20.868Z,17.57
2019-04-30T09:39:34.521Z,17.10
2019-04-30T09:42:48.739Z,16.00
2019-04-30T09:46:14.997Z,12.27
2019-04-30T09:49:19.487Z,10.73
2019-04-30T09:52:35.812Z,11.50
2019-04-30T09:55:49.638Z,9.60
2019-04-30T09:59:03.404Z,10.57
2019-04-30T10:02:19.139Z,10.20
2019-04-30T10:05:32.926Z,9.50
2019-04-30T10:08:49.276Z,10.83
2019-04-30T10:12:09.709Z,12.70
2019-04-30T10:15:35.200Z,11.07
2019-04-30T10:18:48.914Z,9.67
2019-04-30T10:22:02.962Z,9.10
2019-04-30T10:25:16.563Z,10.50
2019-04-30T10:28:32.419Z,10.60
2019-04-30T10:31:46.146Z,8.33
2019-04-30T10:35:00.173Z,13.03
2019-04-30T10:38:13.898Z,13.10
2019-04-30T10:41:28.738Z,9.47
2019-04-30T10:44:42.689Z,8.80
2019-04-30T10:47:56.501Z,11.17
2019-04-30T10:51:10.110Z,8.77
2019-04-30T10:54:26.362Z,9.93
2019-04-30T10:57:39.652Z,8.90
2019-04-30T11:00:54.293Z,8.30
2019-04-30T11:04:08.896Z,8.50
2019-04-30T11:07:22.414Z,9.57
2019-04-30T11:10:36.764Z,13.23
2019-04-30T11:13:50.717Z,10.33
2019-04-30T11:17:04.656Z,8.27
2019-04-30T11:20:21.683Z,7.70
2019-04-30T11:23:34.359Z,9.40
2019-04-30T11:26:50.071Z,7.80
2019-04-30T11:30:05.963Z,8.23
2019-04-30T11:33:20.905Z,8.23
2019-04-30T11:36:35.077Z,8.87
2019-04-30T11:39:49.226Z,8.30
2019-04-30T11:43:03.243Z,8.23
2019-04-30T11:46:54.768Z,7.73
2019-04-30T11:50:12.144Z,7.83
2019-04-30T11:53:28.821Z,10.93
2019-04-30T11:56:41.892Z,9.20
2019-04-30T11:59:56.100Z,7.13
2019-04-30T12:03:09.828Z,6.67
2019-04-30T12:06:23.417Z,7.00
2019-04-30T12:09:55.389Z,6.47
2019-04-30T12:16:40.858Z,7.90
2019-04-30T12:19:54.463Z,5.73
2019-04-30T12:23:11.488Z,6.80
2019-04-30T12:26:23.498Z,4.43
2019-04-30T12:29:37.119Z,5.07
2019-04-30T12:32:51.020Z,5.73
2019-04-30T12:36:06.392Z,4.57
2019-04-30T12:39:20.114Z,9.40
2019-04-30T12:42:33.851Z,5.57
2019-04-30T12:46:01.905Z,4.27
2019-04-30T12:49:10.195Z,6.37
2019-04-30T12:52:29.704Z,4.87
2019-04-30T12:56:00.282Z,7.03
2019-04-30T12:59:13.997Z,3.80
2019-04-30T13:02:29.034Z,5.83
2019-04-30T13:05:42.995Z,4.93
2019-04-30T13:08:59.756Z,4.17
2019-04-30T13:12:12.922Z,5.67
2019-04-30T13:15:26.672Z,3.93
2019-04-30T13:18:40.296Z,6.03
2019-04-30T13:21:53.810Z,5.40
2019-04-30T13:25:09.282Z,5.10
2019-04-30T13:28:24.931Z,5.23
2019-04-30T13:31:40.281Z,5.20
2019-04-30T13:35:00.665Z,5.60
2019-04-30T13:38:24.995Z,5.97
2019-04-30T13:41:51.019Z,5.03
2019-04-30T13:45:05.235Z,5.47
2019-04-30T13:48:19.723Z,6.20
2019-04-30T13:51:33.296Z,5.73
2019-04-30T13:54:46.804Z,7.10
2019-04-30T13:58:00.318Z,3.97
2019-04-30T14:01:16.835Z,6.00
2019-04-30T14:05:02.324Z,6.00
2019-04-30T14:08:44.336Z,5.40
2019-04-30T14:11:58.190Z,5.00
2019-04-30T14:15:14.777Z,4.20
2019-04-30T14:18:33.783Z,5.43
2019-04-30T14:21:44.144Z,5.60
2019-04-30T14:24:57.923Z,4.90
2019-04-30T14:28:11.653Z,5.10
2019-04-30T14:31:28.836Z,6.60
2019-04-30T14:34:42.843Z,4.60
2019-04-30T14:37:56.470Z,4.83
2019-04-30T14:41:10.602Z,4.37
2019-04-30T14:44:26.256Z,6.40
2019-04-30T14:47:50.311Z,4.77
2019-04-30T14:51:03.424Z,6.27
2019-04-30T14:54:26.313Z,5.83
2019-04-30T14:58:05.638Z,4.20
2019-04-30T15:01:25.099Z,4.97
2019-04-30T15:04:39.274Z,6.03
2019-04-30T15:07:53.060Z,5.23
2019-04-30T15:11:08.947Z,4.60
2019-04-30T15:14:23.076Z,5.00
2019-04-30T15:17:36.956Z,5.67
2019-04-30T15:20:52.471Z,6.20
2019-04-30T15:24:15.618Z,3.77
2019-04-30T15:27:29.121Z,4.40
2019-04-30T15:30:42.725Z,4.90
2019-04-30T15:34:10.727Z,5.23
2019-04-30T15:37:23.991Z,4.57
2019-04-30T15:40:38.860Z,4.67
2019-04-30T15:43:52.779Z,4.13
2019-04-30T15:47:06.491Z,4.67
2019-04-30T15:50:20.203Z,3.97
2019-04-30T15:53:33.716Z,7.03
2019-04-30T15:56:48.999Z,4.40
2019-04-30T16:00:03.798Z,4.87
2019-04-30T16:03:22.793Z,4.13
2019-04-30T16:06:36.267Z,5.13
2019-04-30T16:10:00.838Z,3.93
2019-04-30T16:13:19.484Z,4.50
2019-04-30T16:16:35.096Z,3.70
2019-04-30T16:19:48.593Z,4.00
2019-04-30T16:23:02.429Z,5.43
2019-04-30T16:26:16.201Z,5.67
2019-04-30T16:29:30.107Z,5.77
2019-04-30T16:32:43.833Z,5.10
2019-04-30T16:35:58.978Z,4.77
2019-04-30T16:39:12.704Z,5.67
2019-04-30T16:42:26.241Z,7.10
2019-04-30T16:45:39.864Z,4.93
2019-04-30T16:48:53.490Z,6.67
2019-04-30T16:52:09.142Z,5.87
2019-04-30T16:55:22.524Z,6.00
2019-04-30T16:58:54.674Z,5.87
2019-04-30T17:02:09.468Z,6.20
2019-04-30T17:05:36.486Z,7.33
2019-04-30T17:09:01.035Z,5.57
2019-04-30T17:12:23.065Z,7.70
2019-04-30T17:15:37.492Z,5.77
2019-04-30T17:18:51.005Z,8.37
2019-04-30T17:22:04.805Z,8.27
2019-04-30T17:25:18.641Z,5.53
2019-04-30T17:28:32.269Z,6.00
2019-04-30T17:31:46.091Z,6.47
2019-04-30T17:34:59.638Z,6.00
2019-04-30T17:38:13.554Z,7.57
2019-04-30T17:41:27.182Z,8.43
2019-04-30T17:44:40.968Z,6.67
2019-04-30T17:47:54.848Z,9.87
2019-04-30T17:51:09.415Z,7.63
2019-04-30T17:54:23.179Z,6.63
2019-04-30T17:57:36.917Z,7.37
2019-04-30T18:00:53.713Z,7.63
2019-04-30T18:04:08.781Z,18.10
2019-04-30T18:07:22.665Z,13.87
2019-04-30T18:10:36.519Z,14.00
2019-04-30T18:13:50.713Z,11.43
2019-04-30T18:17:04.984Z,13.40
2019-04-30T18:20:29.133Z,8.90
2019-04-30T18:23:53.994Z,19.23
2019-04-30T18:27:43.935Z,27.07
2019-04-30T18:30:51.574Z,17.63
2019-04-30T18:34:05.234Z,10.93
2019-04-30T18:37:19.027Z,9.33
2019-04-30T18:40:32.732Z,11.40
2019-04-30T18:43:48.594Z,13.70
2019-04-30T18:47:02.465Z,10.40
2019-04-30T18:50:16.372Z,13.13
2019-04-30T18:53:31.904Z,19.80
2019-04-30T18:56:45.633Z,13.13
2019-04-30T19:00:01.501Z,12.03
2019-04-30T19:03:14.978Z,14.57
2019-04-30T19:06:29.499Z,36.13
2019-04-30T19:09:50.417Z,11.20
2019-04-30T19:13:19.757Z,16.73
2019-04-30T19:16:46.516Z,14.20
2019-04-30T19:20:18.911Z,11.33
2019-04-30T19:23:32.501Z,10.97
2019-04-30T19:26:46.021Z,7.77
2019-04-30T19:29:59.537Z,9.40
2019-04-30T19:33:13.134Z,11.20
2019-04-30T19:36:35.067Z,10.43
2019-04-30T19:39:42.379Z,9.40
2019-04-30T19:42:55.881Z,7.30
2019-04-30T19:46:09.796Z,13.10
2019-04-30T19:49:23.282Z,12.27
2019-04-30T19:52:36.783Z,10.53
2019-04-30T19:55:50.778Z,11.73
2019-04-30T19:59:05.693Z,8.47
2019-04-30T20:02:21.692Z,9.93
2019-04-30T20:05:35.103Z,13.57
2019-04-30T20:08:48.715Z,11.00
2019-04-30T20:12:02.829Z,9.50
2019-04-30T20:15:21.547Z,9.50
2019-04-30T20:18:31.856Z,10.50
2019-04-30T20:21:50.769Z,10.83
2019-04-30T20:25:09.016Z,11.13
2019-04-30T20:28:22.558Z,11.13
2019-04-30T20:31:36.359Z,12.13
2019-04-30T20:34:49.966Z,10.10
2019-04-30T20:38:21.016Z,11.47
2019-04-30T20:41:34.517Z,19.27
2019-04-30T20:44:48.955Z,21.17
2019-04-30T20:48:03.095Z,18.20
2019-04-30T20:51:16.633Z,13.70
2019-04-30T20:54:30.252Z,10.07
2019-04-30T20:57:43.818Z,10.40
2019-04-30T21:01:04.015Z,9.80
2019-04-30T21:04:13.306Z,10.67
2019-04-30T21:07:26.825Z,16.70
2019-04-30T21:10:40.736Z,12.90
2019-04-30T21:16:33.812Z,13.37
2019-04-30T21:19:47.312Z,11.50
2019-04-30T21:23:00.975Z,12.10
2019-04-30T21:26:14.863Z,10.57
2019-04-30T21:29:29.542Z,10.07
2019-04-30T21:33:03.362Z,12.97
2019-04-30T21:36:20.171Z,9.07
2019-04-30T21:39:33.802Z,10.33
2019-04-30T21:42:47.554Z,8.57
2019-04-30T21:46:01.322Z,15.60
2019-04-30T21:49:14.835Z,15.87
2019-04-30T21:52:28.486Z,17.57
2019-04-30T21:55:42.012Z,11.50
2019-04-30T21:58:55.521Z,10.47
2019-04-30T22:02:09.976Z,11.83
2019-04-30T22:05:23.682Z,11.50
2019-04-30T22:08:38.813Z,15.67
2019-04-30T22:11:53.167Z,12.47
2019-04-30T22:15:07.074Z,12.67
2019-04-30T22:18:20.712Z,14.27
2019-04-30T22:21:34.323Z,10.70
2019-04-30T22:24:49.707Z,11.13
2019-04-30T22:28:03.736Z,10.87
2019-04-30T22:31:17.249Z,14.77
2019-04-30T22:34:30.819Z,14.87
2019-04-30T22:37:44.349Z,12.57
2019-04-30T22:40:58.922Z,15.57
2019-04-30T22:44:12.504Z,16.67
2019-04-30T22:47:26.121Z,12.37
2019-04-30T22:50:40.093Z,15.10
2019-04-30T22:53:53.732Z,14.10
2019-04-30T22:57:07.548Z,13.93
2019-04-30T23:00:29.145Z,12.23
2019-04-30T23:03:42.667Z,17.00
2019-04-30T23:06:56.591Z,18.13
2019-04-30T23:10:10.288Z,16.43
2019-04-30T23:13:24.141Z,18.90
2019-04-30T23:16:37.878Z,11.20
2019-04-30T23:19:51.424Z,14.40
2019-04-30T23:23:05.048Z,10.53
2019-04-30T23:26:19.109Z,15.43
2019-04-30T23:29:32.898Z,13.03
2019-04-30T23:32:46.719Z,15.37
2019-04-30T23:36:00.263Z,18.17
2019-04-30T23:39:14.087Z,14.93
2019-04-30T23:42:27.589Z,13.27
2019-04-30T23:45:41.431Z,10.57
2019-04-30T23:48:55.062Z,10.53
2019-04-30T23:52:08.789Z,11.93
2019-04-30T23:55:22.405Z,15.73
